sensor_id;sensor_type;location;lat;lon;timestamp;P1;durP1;ratioP1;P2;durP2;ratioP2
26806;SDS011;14380;49.910;6.792;2022-10-16T00:00:32;9.35;;;3.03;;
26806;SDS011;14380;49.910;6.792;2022-10-16T00:03:00;6.45;;;2.28;;
26806;SDS011;14380;49.910;6.792;2022-10-16T00:05:26;12.88;;;2.40;;
26806;SDS011;14380;49.910;6.792;2022-10-16T00:07:53;7.85;;;3.20;;
26806;SDS011;14380;49.910;6.792;2022-10-16T00:10:20;4.22;;;1.90;;
26806;SDS011;14380;49.910;6.792;2022-10-16T00:12:47;4.63;;;2.40;;
26806;SDS011;14380;49.910;6.792;2022-10-16T00:15:14;3.78;;;2.40;;
26806;SDS011;14380;49.910;6.792;2022-10-16T00:17:42;4.25;;;2.17;;
26806;SDS011;14380;49.910;6.792;2022-10-16T00:20:09;9.05;;;2.40;;
26806;SDS011;14380;49.910;6.792;2022-10-16T00:22:35;11.70;;;2.50;;
26806;SDS011;14380;49.910;6.792;2022-10-16T00:25:02;14.80;;;2.65;;
26806;SDS011;14380;49.910;6.792;2022-10-16T00:27:29;11.68;;;2.03;;
26806;SDS011;14380;49.910;6.792;2022-10-16T00:29:56;6.53;;;2.22;;
26806;SDS011;14380;49.910;6.792;2022-10-16T00:32:22;4.72;;;2.45;;
26806;SDS011;14380;49.910;6.792;2022-10-16T00:34:50;8.05;;;2.50;;
26806;SDS011;14380;49.910;6.792;2022-10-16T00:37:19;3.00;;;2.10;;
26806;SDS011;14380;49.910;6.792;2022-10-16T00:39:46;8.98;;;2.70;;
26806;SDS011;14380;49.910;6.792;2022-10-16T00:42:13;8.05;;;2.20;;
26806;SDS011;14380;49.910;6.792;2022-10-16T00:44:43;7.07;;;1.92;;
26806;SDS011;14380;49.910;6.792;2022-10-16T00:47:13;9.52;;;1.88;;
26806;SDS011;14380;49.910;6.792;2022-10-16T00:49:45;4.68;;;1.48;;
26806;SDS011;14380;49.910;6.792;2022-10-16T00:52:15;5.40;;;1.90;;
26806;SDS011;14380;49.910;6.792;2022-10-16T00:54:43;8.60;;;2.13;;
26806;SDS011;14380;49.910;6.792;2022-10-16T00:57:11;15.68;;;2.25;;
26806;SDS011;14380;49.910;6.792;2022-10-16T00:59:39;5.20;;;1.88;;
26806;SDS011;14380;49.910;6.792;2022-10-16T01:02:10;4.07;;;1.83;;
26806;SDS011;14380;49.910;6.792;2022-10-16T01:04:39;6.45;;;2.30;;
26806;SDS011;14380;49.910;6.792;2022-10-16T01:07:10;4.70;;;1.88;;
26806;SDS011;14380;49.910;6.792;2022-10-16T01:09:44;7.80;;;1.92;;
26806;SDS011;14380;49.910;6.792;2022-10-16T01:12:20;3.78;;;1.60;;
26806;SDS011;14380;49.910;6.792;2022-10-16T01:14:53;10.65;;;1.85;;
26806;SDS011;14380;49.910;6.792;2022-10-16T01:17:24;3.67;;;1.98;;
26806;SDS011;14380;49.910;6.792;2022-10-16T01:20:03;12.55;;;2.10;;
26806;SDS011;14380;49.910;6.792;2022-10-16T01:22:41;9.25;;;1.65;;
26806;SDS011;14380;49.910;6.792;2022-10-16T01:25:19;6.65;;;1.58;;
26806;SDS011;14380;49.910;6.792;2022-10-16T01:27:58;10.30;;;2.25;;
26806;SDS011;14380;49.910;6.792;2022-10-16T01:30:29;2.85;;;1.90;;
26806;SDS011;14380;49.910;6.792;2022-10-16T01:32:59;5.97;;;2.50;;
26806;SDS011;14380;49.910;6.792;2022-10-16T01:35:30;4.30;;;1.67;;
26806;SDS011;14380;49.910;6.792;2022-10-16T01:38:01;6.30;;;2.13;;
26806;SDS011;14380;49.910;6.792;2022-10-16T01:40:31;5.15;;;2.00;;
26806;SDS011;14380;49.910;6.792;2022-10-16T01:43:03;2.00;;;1.65;;
26806;SDS011;14380;49.910;6.792;2022-10-16T01:45:33;4.00;;;1.50;;
26806;SDS011;14380;49.910;6.792;2022-10-16T01:48:02;3.10;;;1.50;;
26806;SDS011;14380;49.910;6.792;2022-10-16T01:50:33;4.32;;;0.95;;
26806;SDS011;14380;49.910;6.792;2022-10-16T01:53:03;2.97;;;1.00;;
26806;SDS011;14380;49.910;6.792;2022-10-16T01:55:33;4.03;;;1.38;;
26806;SDS011;14380;49.910;6.792;2022-10-16T01:58:05;3.70;;;1.50;;
26806;SDS011;14380;49.910;6.792;2022-10-16T02:00:36;8.82;;;1.17;;
26806;SDS011;14380;49.910;6.792;2022-10-16T02:03:05;2.22;;;1.08;;
26806;SDS011;14380;49.910;6.792;2022-10-16T02:05:34;2.55;;;0.80;;
26806;SDS011;14380;49.910;6.792;2022-10-16T02:08:07;2.15;;;0.98;;
26806;SDS011;14380;49.910;6.792;2022-10-16T02:10:34;1.40;;;0.80;;
26806;SDS011;14380;49.910;6.792;2022-10-16T02:13:03;2.35;;;0.80;;
26806;SDS011;14380;49.910;6.792;2022-10-16T02:15:35;3.40;;;0.80;;
26806;SDS011;14380;49.910;6.792;2022-10-16T02:18:02;3.03;;;0.68;;
26806;SDS011;14380;49.910;6.792;2022-10-16T02:20:32;1.42;;;0.60;;
26806;SDS011;14380;49.910;6.792;2022-10-16T02:23:04;2.38;;;0.50;;
26806;SDS011;14380;49.910;6.792;2022-10-16T02:25:40;3.35;;;0.82;;
26806;SDS011;14380;49.910;6.792;2022-10-16T02:28:13;0.55;;;0.50;;
26806;SDS011;14380;49.910;6.792;2022-10-16T02:30:45;4.30;;;0.73;;
26806;SDS011;14380;49.910;6.792;2022-10-16T02:33:15;0.93;;;0.52;;
26806;SDS011;14380;49.910;6.792;2022-10-16T02:35:44;4.20;;;0.75;;
26806;SDS011;14380;49.910;6.792;2022-10-16T02:38:12;2.13;;;0.93;;
26806;SDS011;14380;49.910;6.792;2022-10-16T02:40:40;1.90;;;0.90;;
26806;SDS011;14380;49.910;6.792;2022-10-16T02:43:07;2.50;;;0.70;;
26806;SDS011;14380;49.910;6.792;2022-10-16T02:45:37;3.55;;;1.00;;
26806;SDS011;14380;49.910;6.792;2022-10-16T02:48:03;1.75;;;0.88;;
26806;SDS011;14380;49.910;6.792;2022-10-16T02:50:30;2.45;;;0.70;;
26806;SDS011;14380;49.910;6.792;2022-10-16T02:52:57;3.28;;;1.10;;
26806;SDS011;14380;49.910;6.792;2022-10-16T02:55:24;6.93;;;0.93;;
26806;SDS011;14380;49.910;6.792;2022-10-16T02:57:51;1.55;;;0.70;;
26806;SDS011;14380;49.910;6.792;2022-10-16T03:00:17;1.35;;;0.70;;
26806;SDS011;14380;49.910;6.792;2022-10-16T03:02:46;1.80;;;0.80;;
26806;SDS011;14380;49.910;6.792;2022-10-16T03:05:12;7.47;;;0.90;;
26806;SDS011;14380;49.910;6.792;2022-10-16T03:07:40;3.22;;;0.85;;
26806;SDS011;14380;49.910;6.792;2022-10-16T03:10:07;2.55;;;0.80;;
26806;SDS011;14380;49.910;6.792;2022-10-16T03:12:34;5.57;;;1.35;;
26806;SDS011;14380;49.910;6.792;2022-10-16T03:15:00;2.42;;;0.80;;
26806;SDS011;14380;49.910;6.792;2022-10-16T03:17:27;1.30;;;0.63;;
26806;SDS011;14380;49.910;6.792;2022-10-16T03:19:55;1.65;;;0.85;;
26806;SDS011;14380;49.910;6.792;2022-10-16T03:22:22;2.15;;;0.70;;
26806;SDS011;14380;49.910;6.792;2022-10-16T03:24:48;2.08;;;0.57;;
26806;SDS011;14380;49.910;6.792;2022-10-16T03:27:15;1.35;;;0.63;;
26806;SDS011;14380;49.910;6.792;2022-10-16T03:29:43;6.65;;;1.20;;
26806;SDS011;14380;49.910;6.792;2022-10-16T03:32:09;2.33;;;0.60;;
26806;SDS011;14380;49.910;6.792;2022-10-16T03:34:36;3.50;;;0.60;;
26806;SDS011;14380;49.910;6.792;2022-10-16T03:37:04;2.90;;;0.88;;
26806;SDS011;14380;49.910;6.792;2022-10-16T03:39:30;4.25;;;0.60;;
26806;SDS011;14380;49.910;6.792;2022-10-16T03:41:57;1.85;;;0.70;;
26806;SDS011;14380;49.910;6.792;2022-10-16T03:44:24;4.32;;;0.85;;
26806;SDS011;14380;49.910;6.792;2022-10-16T03:46:50;1.10;;;0.98;;
26806;SDS011;14380;49.910;6.792;2022-10-16T03:49:17;1.17;;;0.80;;
26806;SDS011;14380;49.910;6.792;2022-10-16T03:51:43;3.78;;;0.90;;
26806;SDS011;14380;49.910;6.792;2022-10-16T03:54:11;2.60;;;0.98;;
26806;SDS011;14380;49.910;6.792;2022-10-16T03:56:38;3.55;;;1.02;;
26806;SDS011;14380;49.910;6.792;2022-10-16T03:59:05;2.20;;;0.77;;
26806;SDS011;14380;49.910;6.792;2022-10-16T04:01:32;1.90;;;0.80;;
26806;SDS011;14380;49.910;6.792;2022-10-16T04:03:58;1.38;;;0.88;;
26806;SDS011;14380;49.910;6.792;2022-10-16T04:06:25;6.93;;;0.80;;
26806;SDS011;14380;49.910;6.792;2022-10-16T04:08:52;2.17;;;1.00;;
26806;SDS011;14380;49.910;6.792;2022-10-16T04:11:19;2.80;;;0.95;;
26806;SDS011;14380;49.910;6.792;2022-10-16T04:13:46;2.38;;;0.73;;
26806;SDS011;14380;49.910;6.792;2022-10-16T04:16:13;3.05;;;0.70;;
26806;SDS011;14380;49.910;6.792;2022-10-16T04:18:39;3.72;;;0.80;;
26806;SDS011;14380;49.910;6.792;2022-10-16T04:21:06;4.50;;;0.90;;
26806;SDS011;14380;49.910;6.792;2022-10-16T04:23:33;2.45;;;0.77;;
26806;SDS011;14380;49.910;6.792;2022-10-16T04:26:00;3.00;;;0.90;;
26806;SDS011;14380;49.910;6.792;2022-10-16T04:28:28;1.50;;;0.93;;
26806;SDS011;14380;49.910;6.792;2022-10-16T04:30:55;7.72;;;0.75;;
26806;SDS011;14380;49.910;6.792;2022-10-16T04:33:22;7.72;;;1.25;;
26806;SDS011;14380;49.910;6.792;2022-10-16T04:35:55;1.80;;;0.85;;
26806;SDS011;14380;49.910;6.792;2022-10-16T04:38:22;4.55;;;1.00;;
26806;SDS011;14380;49.910;6.792;2022-10-16T04:40:49;5.40;;;0.90;;
26806;SDS011;14380;49.910;6.792;2022-10-16T04:43:16;3.10;;;0.70;;
26806;SDS011;14380;49.910;6.792;2022-10-16T04:45:44;3.90;;;1.45;;
26806;SDS011;14380;49.910;6.792;2022-10-16T04:48:10;3.55;;;0.77;;
26806;SDS011;14380;49.910;6.792;2022-10-16T04:50:37;2.50;;;1.00;;
26806;SDS011;14380;49.910;6.792;2022-10-16T04:53:03;1.50;;;0.70;;
26806;SDS011;14380;49.910;6.792;2022-10-16T04:55:30;4.43;;;0.90;;
26806;SDS011;14380;49.910;6.792;2022-10-16T04:57:57;3.20;;;0.70;;
26806;SDS011;14380;49.910;6.792;2022-10-16T05:00:23;4.32;;;1.08;;
26806;SDS011;14380;49.910;6.792;2022-10-16T05:02:52;2.95;;;1.05;;
26806;SDS011;14380;49.910;6.792;2022-10-16T05:05:18;1.48;;;0.98;;
26806;SDS011;14380;49.910;6.792;2022-10-16T05:07:45;0.95;;;0.80;;
26806;SDS011;14380;49.910;6.792;2022-10-16T05:10:12;5.47;;;1.25;;
26806;SDS011;14380;49.910;6.792;2022-10-16T05:12:39;1.73;;;0.60;;
26806;SDS011;14380;49.910;6.792;2022-10-16T05:15:06;1.75;;;1.10;;
26806;SDS011;14380;49.910;6.792;2022-10-16T05:17:34;2.15;;;1.10;;
26806;SDS011;14380;49.910;6.792;2022-10-16T05:20:02;2.22;;;0.77;;
26806;SDS011;14380;49.910;6.792;2022-10-16T05:22:29;4.80;;;0.63;;
26806;SDS011;14380;49.910;6.792;2022-10-16T05:24:56;4.70;;;0.90;;
26806;SDS011;14380;49.910;6.792;2022-10-16T05:27:22;2.42;;;0.63;;
26806;SDS011;14380;49.910;6.792;2022-10-16T05:29:49;7.90;;;1.02;;
26806;SDS011;14380;49.910;6.792;2022-10-16T05:32:16;2.42;;;0.60;;
26806;SDS011;14380;49.910;6.792;2022-10-16T05:34:44;3.50;;;0.90;;
26806;SDS011;14380;49.910;6.792;2022-10-16T05:37:13;2.60;;;0.60;;
26806;SDS011;14380;49.910;6.792;2022-10-16T05:39:39;4.72;;;0.50;;
26806;SDS011;14380;49.910;6.792;2022-10-16T05:42:06;2.88;;;0.60;;
26806;SDS011;14380;49.910;6.792;2022-10-16T05:44:33;5.13;;;0.60;;
26806;SDS011;14380;49.910;6.792;2022-10-16T05:46:59;5.53;;;0.65;;
26806;SDS011;14380;49.910;6.792;2022-10-16T05:49:26;2.90;;;1.00;;
26806;SDS011;14380;49.910;6.792;2022-10-16T05:51:52;2.95;;;0.40;;
26806;SDS011;14380;49.910;6.792;2022-10-16T05:54:20;3.20;;;1.05;;
26806;SDS011;14380;49.910;6.792;2022-10-16T05:56:47;2.35;;;0.70;;
26806;SDS011;14380;49.910;6.792;2022-10-16T05:59:14;4.47;;;0.98;;
26806;SDS011;14380;49.910;6.792;2022-10-16T06:01:40;3.10;;;0.70;;
26806;SDS011;14380;49.910;6.792;2022-10-16T06:04:07;5.68;;;0.70;;
26806;SDS011;14380;49.910;6.792;2022-10-16T06:06:34;7.68;;;0.55;;
26806;SDS011;14380;49.910;6.792;2022-10-16T06:09:01;4.05;;;0.68;;
26806;SDS011;14380;49.910;6.792;2022-10-16T06:11:31;5.50;;;2.28;;
26806;SDS011;14380;49.910;6.792;2022-10-16T06:13:59;6.05;;;3.80;;
26806;SDS011;14380;49.910;6.792;2022-10-16T06:16:27;7.20;;;2.08;;
26806;SDS011;14380;49.910;6.792;2022-10-16T06:18:55;10.48;;;5.55;;
26806;SDS011;14380;49.910;6.792;2022-10-16T06:21:24;10.02;;;6.68;;
26806;SDS011;14380;49.910;6.792;2022-10-16T06:23:53;4.80;;;0.80;;
26806;SDS011;14380;49.910;6.792;2022-10-16T06:26:21;2.53;;;0.82;;
26806;SDS011;14380;49.910;6.792;2022-10-16T06:28:50;7.13;;;2.47;;
26806;SDS011;14380;49.910;6.792;2022-10-16T06:31:17;2.33;;;2.15;;
26806;SDS011;14380;49.910;6.792;2022-10-16T06:33:44;9.23;;;2.03;;
26806;SDS011;14380;49.910;6.792;2022-10-16T06:36:12;5.10;;;0.80;;
26806;SDS011;14380;49.910;6.792;2022-10-16T06:38:40;2.05;;;0.60;;
26806;SDS011;14380;49.910;6.792;2022-10-16T06:41:07;3.38;;;0.90;;
26806;SDS011;14380;49.910;6.792;2022-10-16T06:43:36;2.20;;;0.60;;
26806;SDS011;14380;49.910;6.792;2022-10-16T06:46:04;6.38;;;0.65;;
26806;SDS011;14380;49.910;6.792;2022-10-16T06:48:33;3.80;;;0.80;;
26806;SDS011;14380;49.910;6.792;2022-10-16T06:51:01;4.65;;;0.73;;
26806;SDS011;14380;49.910;6.792;2022-10-16T06:53:30;1.73;;;0.70;;
26806;SDS011;14380;49.910;6.792;2022-10-16T06:55:58;5.57;;;0.70;;
26806;SDS011;14380;49.910;6.792;2022-10-16T06:58:33;2.72;;;0.65;;
26806;SDS011;14380;49.910;6.792;2022-10-16T07:00:59;3.90;;;0.60;;
26806;SDS011;14380;49.910;6.792;2022-10-16T07:03:27;2.90;;;0.75;;
26806;SDS011;14380;49.910;6.792;2022-10-16T07:05:54;10.18;;;2.13;;
26806;SDS011;14380;49.910;6.792;2022-10-16T07:08:21;14.13;;;4.25;;
26806;SDS011;14380;49.910;6.792;2022-10-16T07:10:47;14.57;;;2.20;;
26806;SDS011;14380;49.910;6.792;2022-10-16T07:13:14;5.60;;;0.90;;
26806;SDS011;14380;49.910;6.792;2022-10-16T07:15:41;2.70;;;0.70;;
26806;SDS011;14380;49.910;6.792;2022-10-16T07:18:07;5.43;;;0.77;;
26806;SDS011;14380;49.910;6.792;2022-10-16T07:20:35;2.45;;;0.75;;
26806;SDS011;14380;49.910;6.792;2022-10-16T07:23:02;4.00;;;1.13;;
26806;SDS011;14380;49.910;6.792;2022-10-16T07:25:29;3.72;;;1.40;;
26806;SDS011;14380;49.910;6.792;2022-10-16T07:27:55;2.40;;;1.60;;
26806;SDS011;14380;49.910;6.792;2022-10-16T07:30:22;6.70;;;2.13;;
26806;SDS011;14380;49.910;6.792;2022-10-16T07:32:49;4.03;;;1.45;;
26806;SDS011;14380;49.910;6.792;2022-10-16T07:35:15;4.45;;;1.48;;
26806;SDS011;14380;49.910;6.792;2022-10-16T07:37:45;5.07;;;1.20;;
26806;SDS011;14380;49.910;6.792;2022-10-16T07:40:12;3.75;;;1.10;;
26806;SDS011;14380;49.910;6.792;2022-10-16T07:42:39;4.25;;;1.27;;
26806;SDS011;14380;49.910;6.792;2022-10-16T07:45:06;8.02;;;1.50;;
26806;SDS011;14380;49.910;6.792;2022-10-16T07:47:33;8.68;;;1.80;;
26806;SDS011;14380;49.910;6.792;2022-10-16T07:49:59;4.25;;;1.70;;
26806;SDS011;14380;49.910;6.792;2022-10-16T07:52:26;5.90;;;1.50;;
26806;SDS011;14380;49.910;6.792;2022-10-16T07:54:54;10.10;;;1.50;;
26806;SDS011;14380;49.910;6.792;2022-10-16T07:57:20;5.65;;;1.50;;
26806;SDS011;14380;49.910;6.792;2022-10-16T07:59:47;5.72;;;1.30;;
26806;SDS011;14380;49.910;6.792;2022-10-16T08:02:14;9.52;;;2.15;;
26806;SDS011;14380;49.910;6.792;2022-10-16T08:04:40;4.63;;;1.48;;
26806;SDS011;14380;49.910;6.792;2022-10-16T08:07:07;6.28;;;1.40;;
26806;SDS011;14380;49.910;6.792;2022-10-16T08:09:34;7.25;;;1.15;;
26806;SDS011;14380;49.910;6.792;2022-10-16T08:12:02;1.92;;;1.25;;
26806;SDS011;14380;49.910;6.792;2022-10-16T08:14:30;5.50;;;1.60;;
26806;SDS011;14380;49.910;6.792;2022-10-16T08:16:56;4.68;;;1.73;;
26806;SDS011;14380;49.910;6.792;2022-10-16T08:19:23;2.50;;;1.38;;
26806;SDS011;14380;49.910;6.792;2022-10-16T08:21:50;2.95;;;1.33;;
26806;SDS011;14380;49.910;6.792;2022-10-16T08:24:16;4.75;;;1.10;;
26806;SDS011;14380;49.910;6.792;2022-10-16T08:26:43;5.90;;;0.80;;
26806;SDS011;14380;49.910;6.792;2022-10-16T08:29:11;4.53;;;0.70;;
26806;SDS011;14380;49.910;6.792;2022-10-16T08:31:39;8.32;;;0.82;;
26806;SDS011;14380;49.910;6.792;2022-10-16T08:34:06;2.53;;;0.80;;
26806;SDS011;14380;49.910;6.792;2022-10-16T08:36:33;2.67;;;1.08;;
26806;SDS011;14380;49.910;6.792;2022-10-16T08:38:59;1.67;;;1.00;;
26806;SDS011;14380;49.910;6.792;2022-10-16T08:41:33;6.18;;;1.10;;
26806;SDS011;14380;49.910;6.792;2022-10-16T08:44:26;2.72;;;0.90;;
26806;SDS011;14380;49.910;6.792;2022-10-16T08:47:05;4.60;;;0.90;;
26806;SDS011;14380;49.910;6.792;2022-10-16T08:49:39;3.78;;;1.52;;
26806;SDS011;14380;49.910;6.792;2022-10-16T08:52:10;3.15;;;2.47;;
26806;SDS011;14380;49.910;6.792;2022-10-16T08:54:40;2.17;;;0.60;;
26806;SDS011;14380;49.910;6.792;2022-10-16T08:57:09;2.05;;;0.80;;
26806;SDS011;14380;49.910;6.792;2022-10-16T08:59:41;3.08;;;1.13;;
26806;SDS011;14380;49.910;6.792;2022-10-16T09:02:17;2.80;;;0.90;;
26806;SDS011;14380;49.910;6.792;2022-10-16T09:04:55;1.30;;;0.80;;
26806;SDS011;14380;49.910;6.792;2022-10-16T09:07:37;3.13;;;0.88;;
26806;SDS011;14380;49.910;6.792;2022-10-16T09:10:12;3.55;;;0.60;;
26806;SDS011;14380;49.910;6.792;2022-10-16T09:12:51;2.50;;;0.80;;
26806;SDS011;14380;49.910;6.792;2022-10-16T09:15:26;2.92;;;0.73;;
26806;SDS011;14380;49.910;6.792;2022-10-16T09:17:59;1.60;;;0.90;;
26806;SDS011;14380;49.910;6.792;2022-10-16T09:20:34;0.85;;;0.80;;
26806;SDS011;14380;49.910;6.792;2022-10-16T09:23:12;4.50;;;0.75;;
26806;SDS011;14380;49.910;6.792;2022-10-16T09:25:41;0.63;;;0.63;;
26806;SDS011;14380;49.910;6.792;2022-10-16T09:28:10;4.03;;;1.33;;
26806;SDS011;14380;49.910;6.792;2022-10-16T09:30:38;1.75;;;1.00;;
26806;SDS011;14380;49.910;6.792;2022-10-16T09:33:05;7.28;;;1.40;;
26806;SDS011;14380;49.910;6.792;2022-10-16T09:35:36;2.63;;;1.45;;
26806;SDS011;14380;49.910;6.792;2022-10-16T09:38:05;1.17;;;1.00;;
26806;SDS011;14380;49.910;6.792;2022-10-16T09:40:33;2.47;;;0.93;;
26806;SDS011;14380;49.910;6.792;2022-10-16T09:43:03;2.05;;;0.80;;
26806;SDS011;14380;49.910;6.792;2022-10-16T09:45:44;2.63;;;1.10;;
26806;SDS011;14380;49.910;6.792;2022-10-16T09:48:20;2.63;;;0.73;;
26806;SDS011;14380;49.910;6.792;2022-10-16T09:50:54;2.70;;;0.60;;
26806;SDS011;14380;49.910;6.792;2022-10-16T09:53:22;1.60;;;0.63;;
26806;SDS011;14380;49.910;6.792;2022-10-16T09:55:49;3.83;;;0.60;;
26806;SDS011;14380;49.910;6.792;2022-10-16T09:58:17;3.25;;;0.98;;
26806;SDS011;14380;49.910;6.792;2022-10-16T10:00:50;1.67;;;0.80;;
26806;SDS011;14380;49.910;6.792;2022-10-16T10:03:30;1.30;;;0.60;;
26806;SDS011;14380;49.910;6.792;2022-10-16T10:06:05;4.03;;;0.70;;
26806;SDS011;14380;49.910;6.792;2022-10-16T10:08:52;6.93;;;0.80;;
26806;SDS011;14380;49.910;6.792;2022-10-16T10:14:05;2.38;;;0.70;;
26806;SDS011;14380;49.910;6.792;2022-10-16T10:16:33;3.60;;;0.80;;
26806;SDS011;14380;49.910;6.792;2022-10-16T10:19:00;1.55;;;0.90;;
26806;SDS011;14380;49.910;6.792;2022-10-16T10:21:27;1.33;;;0.77;;
26806;SDS011;14380;49.910;6.792;2022-10-16T10:23:56;1.73;;;0.70;;
26806;SDS011;14380;49.910;6.792;2022-10-16T10:26:23;6.88;;;0.98;;
26806;SDS011;14380;49.910;6.792;2022-10-16T10:28:55;3.30;;;0.75;;
26806;SDS011;14380;49.910;6.792;2022-10-16T10:31:32;1.90;;;0.45;;
26806;SDS011;14380;49.910;6.792;2022-10-16T10:34:09;2.95;;;0.73;;
26806;SDS011;14380;49.910;6.792;2022-10-16T10:36:52;2.03;;;0.50;;
26806;SDS011;14380;49.910;6.792;2022-10-16T10:39:28;1.67;;;0.63;;
26806;SDS011;14380;49.910;6.792;2022-10-16T10:42:10;1.83;;;0.73;;
26806;SDS011;14380;49.910;6.792;2022-10-16T10:47:42;0.70;;;0.68;;
26806;SDS011;14380;49.910;6.792;2022-10-16T10:50:18;4.53;;;0.82;;
26806;SDS011;14380;49.910;6.792;2022-10-16T10:52:57;0.90;;;0.68;;
26806;SDS011;14380;49.910;6.792;2022-10-16T10:55:34;6.25;;;0.85;;
26806;SDS011;14380;49.910;6.792;2022-10-16T11:01:06;1.92;;;1.00;;
26806;SDS011;14380;49.910;6.792;2022-10-16T11:03:50;1.63;;;0.85;;
26806;SDS011;14380;49.910;6.792;2022-10-16T11:06:30;1.40;;;0.80;;
26806;SDS011;14380;49.910;6.792;2022-10-16T11:09:02;2.58;;;0.70;;
26806;SDS011;14380;49.910;6.792;2022-10-16T11:11:37;2.05;;;0.60;;
26806;SDS011;14380;49.910;6.792;2022-10-16T11:14:09;1.80;;;0.52;;
26806;SDS011;14380;49.910;6.792;2022-10-16T11:16:43;1.92;;;0.80;;
26806;SDS011;14380;49.910;6.792;2022-10-16T11:19:19;2.85;;;0.60;;
26806;SDS011;14380;49.910;6.792;2022-10-16T11:21:55;3.53;;;0.80;;
26806;SDS011;14380;49.910;6.792;2022-10-16T11:24:30;3.25;;;0.80;;
26806;SDS011;14380;49.910;6.792;2022-10-16T11:27:04;1.85;;;0.75;;
26806;SDS011;14380;49.910;6.792;2022-10-16T11:29:35;4.28;;;0.57;;
26806;SDS011;14380;49.910;6.792;2022-10-16T11:32:16;1.88;;;0.60;;
26806;SDS011;14380;49.910;6.792;2022-10-16T11:34:51;1.10;;;0.70;;
26806;SDS011;14380;49.910;6.792;2022-10-16T11:37:23;4.22;;;0.88;;
26806;SDS011;14380;49.910;6.792;2022-10-16T11:39:55;0.98;;;0.70;;
26806;SDS011;14380;49.910;6.792;2022-10-16T11:42:30;2.60;;;1.25;;
26806;SDS011;14380;49.910;6.792;2022-10-16T11:45:03;5.10;;;2.85;;
26806;SDS011;14380;49.910;6.792;2022-10-16T11:47:41;3.28;;;1.30;;
26806;SDS011;14380;49.910;6.792;2022-10-16T11:50:17;3.30;;;1.33;;
26806;SDS011;14380;49.910;6.792;2022-10-16T11:52:50;4.82;;;1.00;;
26806;SDS011;14380;49.910;6.792;2022-10-16T11:55:20;1.73;;;1.00;;
26806;SDS011;14380;49.910;6.792;2022-10-16T11:57:49;3.25;;;0.95;;
26806;SDS011;14380;49.910;6.792;2022-10-16T12:00:21;1.92;;;0.63;;
26806;SDS011;14380;49.910;6.792;2022-10-16T12:02:56;3.10;;;0.95;;
26806;SDS011;14380;49.910;6.792;2022-10-16T12:05:33;1.60;;;1.45;;
26806;SDS011;14380;49.910;6.792;2022-10-16T12:08:12;3.70;;;1.20;;
26806;SDS011;14380;49.910;6.792;2022-10-16T12:10:41;2.95;;;1.42;;
26806;SDS011;14380;49.910;6.792;2022-10-16T12:13:30;4.90;;;1.85;;
26806;SDS011;14380;49.910;6.792;2022-10-16T12:18:48;1.55;;;1.10;;
26806;SDS011;14380;49.910;6.792;2022-10-16T12:21:17;2.78;;;1.65;;
26806;SDS011;14380;49.910;6.792;2022-10-16T12:23:48;2.40;;;1.10;;
26806;SDS011;14380;49.910;6.792;2022-10-16T12:26:23;4.05;;;1.48;;
26806;SDS011;14380;49.910;6.792;2022-10-16T12:28:51;2.85;;;1.20;;
26806;SDS011;14380;49.910;6.792;2022-10-16T12:31:18;1.88;;;1.20;;
26806;SDS011;14380;49.910;6.792;2022-10-16T12:33:53;2.72;;;1.50;;
26806;SDS011;14380;49.910;6.792;2022-10-16T12:36:28;2.95;;;0.80;;
26806;SDS011;14380;49.910;6.792;2022-10-16T12:38:57;1.63;;;0.98;;
26806;SDS011;14380;49.910;6.792;2022-10-16T12:41:25;4.43;;;1.63;;
26806;SDS011;14380;49.910;6.792;2022-10-16T12:43:53;4.15;;;0.90;;
26806;SDS011;14380;49.910;6.792;2022-10-16T12:46:22;2.65;;;0.80;;
26806;SDS011;14380;49.910;6.792;2022-10-16T12:49:15;3.85;;;1.00;;
26806;SDS011;14380;49.910;6.792;2022-10-16T12:51:51;1.55;;;0.88;;
26806;SDS011;14380;49.910;6.792;2022-10-16T12:54:19;0.90;;;0.80;;
26806;SDS011;14380;49.910;6.792;2022-10-16T12:57:04;3.20;;;1.00;;
26806;SDS011;14380;49.910;6.792;2022-10-16T12:59:46;2.58;;;1.00;;
26806;SDS011;14380;49.910;6.792;2022-10-16T13:02:22;2.22;;;1.13;;
26806;SDS011;14380;49.910;6.792;2022-10-16T13:05:12;4.88;;;0.95;;
26806;SDS011;14380;49.910;6.792;2022-10-16T13:07:53;1.05;;;0.70;;
26806;SDS011;14380;49.910;6.792;2022-10-16T13:10:32;2.45;;;0.75;;
26806;SDS011;14380;49.910;6.792;2022-10-16T13:13:21;6.38;;;1.05;;
26806;SDS011;14380;49.910;6.792;2022-10-16T13:16:07;2.00;;;0.90;;
26806;SDS011;14380;49.910;6.792;2022-10-16T13:18:48;2.85;;;1.27;;
26806;SDS011;14380;49.910;6.792;2022-10-16T13:21:29;5.68;;;1.08;;
26806;SDS011;14380;49.910;6.792;2022-10-16T13:24:06;3.50;;;1.05;;
26806;SDS011;14380;49.910;6.792;2022-10-16T13:26:43;3.85;;;0.98;;
26806;SDS011;14380;49.910;6.792;2022-10-16T13:29:15;8.60;;;1.20;;
26806;SDS011;14380;49.910;6.792;2022-10-16T13:31:42;5.60;;;0.90;;
26806;SDS011;14380;49.910;6.792;2022-10-16T13:34:11;8.95;;;1.38;;
26806;SDS011;14380;49.910;6.792;2022-10-16T13:36:43;9.15;;;1.42;;
26806;SDS011;14380;49.910;6.792;2022-10-16T13:39:13;3.60;;;1.05;;
26806;SDS011;14380;49.910;6.792;2022-10-16T13:41:42;3.88;;;1.52;;
26806;SDS011;14380;49.910;6.792;2022-10-16T13:44:12;2.50;;;1.98;;
26806;SDS011;14380;49.910;6.792;2022-10-16T13:46:41;2.92;;;1.33;;
26806;SDS011;14380;49.910;6.792;2022-10-16T13:49:12;1.20;;;1.10;;
26806;SDS011;14380;49.910;6.792;2022-10-16T13:51:40;4.93;;;1.33;;
26806;SDS011;14380;49.910;6.792;2022-10-16T13:54:07;8.38;;;1.33;;
26806;SDS011;14380;49.910;6.792;2022-10-16T13:56:38;6.50;;;1.20;;
26806;SDS011;14380;49.910;6.792;2022-10-16T13:59:06;3.42;;;1.20;;
26806;SDS011;14380;49.910;6.792;2022-10-16T14:01:48;6.65;;;1.20;;
26806;SDS011;14380;49.910;6.792;2022-10-16T14:04:19;5.97;;;1.20;;
26806;SDS011;14380;49.910;6.792;2022-10-16T14:06:46;9.95;;;1.35;;
26806;SDS011;14380;49.910;6.792;2022-10-16T14:09:18;10.98;;;1.70;;
26806;SDS011;14380;49.910;6.792;2022-10-16T14:11:51;10.40;;;1.55;;
26806;SDS011;14380;49.910;6.792;2022-10-16T14:14:20;9.65;;;1.42;;
26806;SDS011;14380;49.910;6.792;2022-10-16T14:16:48;6.13;;;1.48;;
26806;SDS011;14380;49.910;6.792;2022-10-16T14:19:17;5.50;;;1.48;;
26806;SDS011;14380;49.910;6.792;2022-10-16T14:21:46;8.77;;;1.92;;
26806;SDS011;14380;49.910;6.792;2022-10-16T14:24:13;13.18;;;2.05;;
26806;SDS011;14380;49.910;6.792;2022-10-16T14:26:50;12.85;;;1.48;;
26806;SDS011;14380;49.910;6.792;2022-10-16T14:29:20;7.90;;;1.30;;
26806;SDS011;14380;49.910;6.792;2022-10-16T14:31:54;6.53;;;1.70;;
26806;SDS011;14380;49.910;6.792;2022-10-16T14:34:25;12.05;;;1.67;;
26806;SDS011;14380;49.910;6.792;2022-10-16T14:36:53;4.10;;;1.50;;
26806;SDS011;14380;49.910;6.792;2022-10-16T14:39:20;6.18;;;1.58;;
26806;SDS011;14380;49.910;6.792;2022-10-16T14:41:49;5.13;;;1.77;;
26806;SDS011;14380;49.910;6.792;2022-10-16T14:44:18;4.65;;;1.58;;
26806;SDS011;14380;49.910;6.792;2022-10-16T14:46:48;6.03;;;1.70;;
26806;SDS011;14380;49.910;6.792;2022-10-16T14:49:15;5.82;;;1.58;;
26806;SDS011;14380;49.910;6.792;2022-10-16T14:51:45;4.95;;;1.55;;
26806;SDS011;14380;49.910;6.792;2022-10-16T14:54:13;8.38;;;1.88;;
26806;SDS011;14380;49.910;6.792;2022-10-16T14:56:43;7.75;;;1.85;;
26806;SDS011;14380;49.910;6.792;2022-10-16T14:59:14;11.25;;;2.25;;
26806;SDS011;14380;49.910;6.792;2022-10-16T15:01:44;8.63;;;2.10;;
26806;SDS011;14380;49.910;6.792;2022-10-16T15:04:11;10.15;;;1.95;;
26806;SDS011;14380;49.910;6.792;2022-10-16T15:06:39;7.68;;;1.60;;
26806;SDS011;14380;49.910;6.792;2022-10-16T15:09:06;6.50;;;1.70;;
26806;SDS011;14380;49.910;6.792;2022-10-16T15:11:32;10.63;;;2.00;;
26806;SDS011;14380;49.910;6.792;2022-10-16T15:13:59;10.60;;;1.58;;
26806;SDS011;14380;49.910;6.792;2022-10-16T15:16:27;14.93;;;2.13;;